createdAt,value
2019-02-25T00:00:15.913Z,10.33
2019-02-25T00:02:44.290Z,11.40
2019-02-25T00:05:12.715Z,8.60
2019-02-25T00:07:41.082Z,8.40
2019-02-25T00:10:10.310Z,10.60
2019-02-25T00:12:38.880Z,10.30
2019-02-25T00:15:09.318Z,9.23
2019-02-25T00:17:39.844Z,10.67
2019-02-25T00:20:14.032Z,9.07
2019-02-25T00:22:42.307Z,11.63
2019-02-25T00:25:14.029Z,9.20
2019-02-25T00:27:42.324Z,11.73
2019-02-25T00:30:12.670Z,10.23
2019-02-25T00:32:40.988Z,11.60
2019-02-25T00:35:09.414Z,7.10
2019-02-25T00:37:37.728Z,9.17
2019-02-25T00:40:08.668Z,7.83
2019-02-25T00:42:36.959Z,9.37
2019-02-25T00:45:10.536Z,12.07
2019-02-25T00:47:38.865Z,11.80
2019-02-25T00:50:12.763Z,11.43
2019-02-25T00:52:41.051Z,11.60
2019-02-25T00:55:10.181Z,12.97
2019-02-25T00:57:38.502Z,15.70
2019-02-25T01:00:15.470Z,17.33
2019-02-25T01:02:43.792Z,15.17
2019-02-25T01:05:12.292Z,15.67
2019-02-25T01:07:40.775Z,14.43
2019-02-25T01:10:11.069Z,14.10
2019-02-25T01:12:39.628Z,19.33
2019-02-25T01:15:09.532Z,17.30
2019-02-25T01:17:37.922Z,13.97
2019-02-25T01:20:11.724Z,17.00
2019-02-25T01:22:40.778Z,13.17
2019-02-25T01:25:10.998Z,15.73
2019-02-25T01:27:39.310Z,11.27
2019-02-25T01:30:16.234Z,12.37
2019-02-25T01:32:44.558Z,10.63
2019-02-25T01:35:13.475Z,9.30
2019-02-25T01:37:41.860Z,9.70
2019-02-25T01:40:11.790Z,9.43
2019-02-25T01:42:40.223Z,9.63
2019-02-25T01:45:19.375Z,10.60
2019-02-25T01:47:47.830Z,11.87
2019-02-25T01:50:16.588Z,8.70
2019-02-25T01:52:44.871Z,9.17
2019-02-25T01:55:13.830Z,8.60
2019-02-25T01:57:42.181Z,10.87
2019-02-25T02:00:17.939Z,10.97
2019-02-25T02:02:46.293Z,7.87
2019-02-25T02:05:14.676Z,10.13
2019-02-25T02:07:43.272Z,9.50
2019-02-25T02:10:14.781Z,10.20
2019-02-25T02:12:43.093Z,11.47
2019-02-25T02:15:13.935Z,9.83
2019-02-25T02:17:42.268Z,11.57
2019-02-25T02:20:15.559Z,11.20
2019-02-25T02:22:43.875Z,10.30
2019-02-25T02:25:13.184Z,9.47
2019-02-25T02:27:41.600Z,9.53
2019-02-25T02:30:23.678Z,10.23
2019-02-25T02:32:51.952Z,10.30
2019-02-25T02:35:20.280Z,8.70
2019-02-25T02:37:48.696Z,9.23
2019-02-25T02:40:17.101Z,8.57
2019-02-25T02:43:00.166Z,8.93
2019-02-25T02:45:37.972Z,8.80
2019-02-25T02:48:15.685Z,13.30
2019-02-25T02:50:44.079Z,11.03
2019-02-25T02:53:12.515Z,10.33
2019-02-25T02:55:40.956Z,9.73
2019-02-25T02:58:09.405Z,9.80
2019-02-25T03:00:38.472Z,9.10
2019-02-25T03:03:06.743Z,14.20
2019-02-25T03:05:35.149Z,9.47
2019-02-25T03:08:03.437Z,8.03
2019-02-25T03:10:31.797Z,7.50
2019-02-25T03:13:00.054Z,9.27
2019-02-25T03:15:28.661Z,8.80
2019-02-25T03:17:57.002Z,8.27
2019-02-25T03:20:25.308Z,10.50
2019-02-25T03:22:53.630Z,11.53
2019-02-25T03:25:21.905Z,10.27
2019-02-25T03:27:50.297Z,8.63
2019-02-25T03:30:20.166Z,11.03
2019-02-25T03:32:48.557Z,7.90
2019-02-25T03:35:16.909Z,12.10
2019-02-25T03:37:45.204Z,10.90
2019-02-25T03:40:16.840Z,10.23
2019-02-25T03:42:45.165Z,10.53
2019-02-25T03:45:15.408Z,9.90
2019-02-25T03:47:43.953Z,8.40
2019-02-25T03:50:12.586Z,9.87
2019-02-25T03:52:40.986Z,8.73
2019-02-25T03:55:11.902Z,8.30
2019-02-25T03:57:40.295Z,9.40
2019-02-25T04:00:14.321Z,11.05
2019-02-25T04:02:42.668Z,11.50
2019-02-25T04:05:11.221Z,8.23
2019-02-25T04:07:39.679Z,10.50
2019-02-25T04:10:10.643Z,12.47
2019-02-25T04:12:39.100Z,11.17
2019-02-25T04:15:11.171Z,11.37
2019-02-25T04:17:39.475Z,9.97
2019-02-25T04:20:13.545Z,10.03
2019-02-25T04:22:41.902Z,13.23
2019-02-25T04:25:10.411Z,9.97
2019-02-25T04:27:38.704Z,14.80
2019-02-25T04:30:17.626Z,11.40
2019-02-25T04:32:45.964Z,12.10
2019-02-25T04:35:14.911Z,11.57
2019-02-25T04:37:43.605Z,14.43
2019-02-25T04:40:13.154Z,16.50
2019-02-25T04:42:41.535Z,10.47
2019-02-25T04:45:21.104Z,16.50
2019-02-25T04:47:49.449Z,13.90
2019-02-25T04:50:17.945Z,11.07
2019-02-25T04:52:46.308Z,11.20
2019-02-25T04:55:15.667Z,12.80
2019-02-25T04:57:44.042Z,10.30
2019-02-25T05:00:15.134Z,8.40
2019-02-25T05:02:43.449Z,11.63
2019-02-25T05:05:11.843Z,12.03
2019-02-25T05:07:40.120Z,12.63
2019-02-25T05:10:11.510Z,8.70
2019-02-25T05:12:41.433Z,12.93
2019-02-25T05:15:12.347Z,10.77
2019-02-25T05:17:40.700Z,9.30
2019-02-25T05:20:09.590Z,10.27
2019-02-25T05:22:37.883Z,11.60
2019-02-25T05:25:11.089Z,16.15
2019-02-25T05:27:39.401Z,10.97
2019-02-25T05:30:10.928Z,12.70
2019-02-25T05:32:39.492Z,13.35
2019-02-25T05:35:09.845Z,13.20
2019-02-25T05:37:38.200Z,14.00
2019-02-25T05:40:09.714Z,12.28
2019-02-25T05:42:38.342Z,21.17
2019-02-25T05:45:07.380Z,18.12
2019-02-25T05:47:35.874Z,13.07
2019-02-25T05:50:07.249Z,11.93
2019-02-25T05:52:35.757Z,20.95
2019-02-25T05:55:06.949Z,14.50
2019-02-25T05:57:35.269Z,20.47
2019-02-25T06:00:04.884Z,15.90
2019-02-25T06:02:33.200Z,13.43
2019-02-25T06:05:01.574Z,11.73
2019-02-25T06:07:30.077Z,12.93
2019-02-25T06:09:58.481Z,14.20
2019-02-25T06:12:26.858Z,14.10
2019-02-25T06:14:55.170Z,15.03
2019-02-25T06:17:23.523Z,13.03
2019-02-25T06:19:52.119Z,12.28
2019-02-25T06:22:20.569Z,17.47
2019-02-25T06:24:48.936Z,17.53
2019-02-25T06:27:17.412Z,13.10
2019-02-25T06:29:45.785Z,11.73
2019-02-25T06:32:14.105Z,17.90
2019-02-25T06:34:42.447Z,30.00
2019-02-25T06:37:10.878Z,21.42
2019-02-25T06:39:39.232Z,32.50
2019-02-25T06:42:07.857Z,34.37
2019-02-25T06:44:36.312Z,47.10
2019-02-25T06:47:05.481Z,42.60
2019-02-25T06:49:33.815Z,57.40
2019-02-25T06:52:02.185Z,61.67
2019-02-25T06:54:30.497Z,50.33
2019-02-25T06:56:58.794Z,37.23
2019-02-25T06:59:27.173Z,58.83
2019-02-25T07:01:55.701Z,49.33
2019-02-25T07:04:31.524Z,58.07
2019-02-25T07:07:04.607Z,48.80
2019-02-25T07:09:34.878Z,89.53
2019-02-25T07:12:05.906Z,65.73
2019-02-25T07:14:48.001Z,48.67
2019-02-25T07:17:24.052Z,31.80
2019-02-25T07:20:09.996Z,34.90
2019-02-25T07:22:42.622Z,31.13
2019-02-25T07:25:12.715Z,46.73
2019-02-25T07:27:45.116Z,45.07
2019-02-25T07:30:33.538Z,32.97
2019-02-25T07:33:03.480Z,23.83
2019-02-25T07:35:39.018Z,30.57
2019-02-25T07:38:14.716Z,30.13
2019-02-25T07:41:04.019Z,23.70
2019-02-25T07:43:39.665Z,12.70
2019-02-25T07:46:10.055Z,15.50
2019-02-25T07:48:45.672Z,14.53
2019-02-25T07:51:15.775Z,16.00
2019-02-25T07:53:54.976Z,14.20
2019-02-25T07:56:27.993Z,13.00
2019-02-25T07:59:07.154Z,13.73
2019-02-25T08:01:46.392Z,9.40
2019-02-25T08:04:19.426Z,9.30
2019-02-25T08:06:55.057Z,9.00
2019-02-25T08:09:34.127Z,9.93
2019-02-25T08:12:07.312Z,10.37
2019-02-25T08:14:46.624Z,8.97
2019-02-25T08:17:19.627Z,13.57
2019-02-25T08:19:52.114Z,7.23
2019-02-25T08:22:22.963Z,8.87
2019-02-25T08:24:52.977Z,9.50
2019-02-25T08:27:31.863Z,7.73
2019-02-25T08:30:27.774Z,8.83
2019-02-25T08:33:00.705Z,9.00
2019-02-25T08:36:07.000Z,7.17
2019-02-25T08:38:56.177Z,12.17
2019-02-25T08:41:34.993Z,7.13
2019-02-25T08:44:13.336Z,9.97
2019-02-25T08:46:43.352Z,6.60
2019-02-25T08:49:13.362Z,10.07
2019-02-25T08:51:41.734Z,8.20
2019-02-25T08:54:10.155Z,9.30
2019-02-25T08:56:38.615Z,9.87
2019-02-25T08:59:07.029Z,8.90
2019-02-25T09:01:35.479Z,7.87
2019-02-25T09:04:03.811Z,8.80
2019-02-25T09:06:32.168Z,8.43
2019-02-25T09:09:00.744Z,10.07
2019-02-25T09:11:29.251Z,18.37
2019-02-25T09:13:57.714Z,7.30
2019-02-25T09:16:26.109Z,7.17
2019-02-25T09:18:54.561Z,7.00
2019-02-25T09:21:31.389Z,6.57
2019-02-25T09:23:52.971Z,8.83
2019-02-25T09:26:21.302Z,10.20
2019-02-25T09:28:49.674Z,7.83
2019-02-25T09:31:17.999Z,7.80
2019-02-25T09:33:46.328Z,8.67
2019-02-25T09:36:14.833Z,7.10
2019-02-25T09:38:43.199Z,10.40
2019-02-25T09:41:11.609Z,7.23
2019-02-25T09:43:39.913Z,5.60
2019-02-25T09:46:10.664Z,8.20
2019-02-25T09:48:39.169Z,7.93
2019-02-25T09:51:07.488Z,7.10
2019-02-25T09:53:35.860Z,8.37
2019-02-25T09:56:04.518Z,7.93
2019-02-25T09:58:33.075Z,17.30
2019-02-25T10:01:01.598Z,11.60
2019-02-25T10:03:29.899Z,9.80
2019-02-25T10:05:58.200Z,9.53
2019-02-25T10:08:26.556Z,4.83
2019-02-25T10:10:54.860Z,8.43
2019-02-25T10:13:23.266Z,10.70
2019-02-25T10:15:51.639Z,8.17
2019-02-25T10:18:20.101Z,6.80
2019-02-25T10:20:48.500Z,7.17
2019-02-25T10:23:16.831Z,7.50
2019-02-25T10:25:45.228Z,5.67
2019-02-25T10:28:13.643Z,6.00
2019-02-25T10:30:41.932Z,5.60
2019-02-25T10:33:10.287Z,8.90
2019-02-25T10:35:38.568Z,8.53
2019-02-25T10:38:06.950Z,6.37
2019-02-25T10:40:35.316Z,6.37
2019-02-25T10:43:03.746Z,5.50
2019-02-25T10:45:32.017Z,6.13
2019-02-25T10:48:00.805Z,7.03
2019-02-25T10:50:31.150Z,7.47
2019-02-25T10:53:03.516Z,6.47
2019-02-25T10:55:35.384Z,4.03
2019-02-25T10:58:04.341Z,4.23
2019-02-25T11:00:32.832Z,6.00
2019-02-25T11:03:01.337Z,4.23
2019-02-25T11:05:30.573Z,5.03
2019-02-25T11:08:00.092Z,6.07
2019-02-25T11:10:30.138Z,6.03
2019-02-25T11:12:59.964Z,3.70
2019-02-25T11:15:29.423Z,3.63
2019-02-25T11:17:57.849Z,7.23
2019-02-25T11:20:27.329Z,6.20
2019-02-25T11:22:56.655Z,6.70
2019-02-25T11:25:26.278Z,9.00
2019-02-25T11:27:55.016Z,2.90
2019-02-25T11:30:23.985Z,6.97
2019-02-25T11:32:53.938Z,5.40
2019-02-25T11:35:23.260Z,5.93
2019-02-25T11:37:52.473Z,5.03
2019-02-25T11:40:21.826Z,8.90
2019-02-25T11:42:51.021Z,6.83
2019-02-25T11:45:21.202Z,5.77
2019-02-25T11:47:49.599Z,6.00
2019-02-25T11:50:20.357Z,5.43
2019-02-25T11:52:48.712Z,8.70
2019-02-25T11:55:17.373Z,7.63
2019-02-25T11:57:45.760Z,3.77
2019-02-25T12:00:19.656Z,3.73
2019-02-25T12:02:47.953Z,6.47
2019-02-25T12:05:17.930Z,7.97
2019-02-25T12:07:46.498Z,4.33
2019-02-25T12:10:17.713Z,15.03
2019-02-25T12:12:46.122Z,4.77
2019-02-25T12:15:22.426Z,7.50
2019-02-25T12:17:50.871Z,7.73
2019-02-25T12:20:19.596Z,6.57
2019-02-25T12:22:48.072Z,6.23
2019-02-25T12:25:24.026Z,4.90
2019-02-25T12:27:52.431Z,3.87
2019-02-25T12:30:23.268Z,5.33
2019-02-25T12:32:51.594Z,5.23
2019-02-25T12:35:20.138Z,6.80
2019-02-25T12:37:49.760Z,2.50
2019-02-25T12:40:19.073Z,5.83
2019-02-25T12:42:48.255Z,5.30
2019-02-25T12:45:17.264Z,6.70
2019-02-25T12:47:46.288Z,8.73
2019-02-25T12:50:17.023Z,4.30
2019-02-25T12:52:46.450Z,7.23
2019-02-25T12:55:19.295Z,6.20
2019-02-25T12:57:48.565Z,3.40
2019-02-25T13:00:22.338Z,4.67
2019-02-25T13:02:50.911Z,4.50
2019-02-25T13:05:24.443Z,4.07
2019-02-25T13:07:53.557Z,4.50
2019-02-25T13:10:23.050Z,5.90
2019-02-25T13:12:53.562Z,5.17
2019-02-25T13:15:24.381Z,4.03
2019-02-25T13:17:52.858Z,4.77
2019-02-25T13:20:21.187Z,6.93
2019-02-25T13:22:49.669Z,6.23
2019-02-25T13:25:26.732Z,4.40
2019-02-25T13:27:56.939Z,4.93
2019-02-25T13:30:25.807Z,3.03
2019-02-25T13:32:54.127Z,5.53
2019-02-25T13:35:22.582Z,4.60
2019-02-25T13:37:51.056Z,7.33
2019-02-25T13:40:19.517Z,4.97
2019-02-25T13:42:48.166Z,8.50
2019-02-25T13:45:21.212Z,5.70
2019-02-25T13:47:49.588Z,5.63
2019-02-25T13:50:18.800Z,7.77
2019-02-25T13:52:48.468Z,2.87
2019-02-25T13:55:21.787Z,4.23
2019-02-25T13:57:50.161Z,5.53
2019-02-25T14:00:21.936Z,7.00
2019-02-25T14:02:50.489Z,2.70
2019-02-25T14:05:18.901Z,3.57
2019-02-25T14:07:47.320Z,6.47
2019-02-25T14:10:19.239Z,5.50
2019-02-25T14:12:47.619Z,5.13
2019-02-25T14:15:25.559Z,5.13
2019-02-25T14:17:53.867Z,4.20
2019-02-25T14:20:26.037Z,5.83
2019-02-25T14:22:54.416Z,5.70
2019-02-25T14:25:27.387Z,6.73
2019-02-25T14:27:56.149Z,7.93
2019-02-25T14:30:26.682Z,6.80
2019-02-25T14:32:55.870Z,6.83
2019-02-25T14:35:28.770Z,5.40
2019-02-25T14:38:02.468Z,4.27
2019-02-25T14:40:32.061Z,5.70
2019-02-25T14:42:59.983Z,3.40
2019-02-25T14:45:31.515Z,3.37
2019-02-25T14:47:59.907Z,9.93
2019-02-25T14:50:29.301Z,3.60
2019-02-25T14:52:57.723Z,6.40
2019-02-25T14:55:26.379Z,4.60
2019-02-25T14:57:55.258Z,4.83
2019-02-25T15:00:31.417Z,4.73
2019-02-25T15:02:58.793Z,3.03
2019-02-25T15:05:27.186Z,3.63
2019-02-25T15:07:55.656Z,6.43
2019-02-25T15:10:29.115Z,2.03
2019-02-25T15:12:58.672Z,3.33
2019-02-25T15:15:24.735Z,15.67
2019-02-25T15:17:53.178Z,3.90
2019-02-25T15:20:24.042Z,7.77
2019-02-25T15:22:53.644Z,4.80
2019-02-25T15:25:22.471Z,4.47
2019-02-25T15:27:51.089Z,3.40
2019-02-25T15:30:22.903Z,3.70
2019-02-25T15:32:55.536Z,4.20
2019-02-25T15:35:26.539Z,2.13
2019-02-25T15:37:55.158Z,2.20
2019-02-25T15:40:25.094Z,5.67
2019-02-25T15:43:12.644Z,6.53
2019-02-25T15:45:42.433Z,1.53
2019-02-25T15:48:22.985Z,3.70
2019-02-25T15:50:55.976Z,2.30
2019-02-25T15:53:25.995Z,1.97
2019-02-25T15:55:56.921Z,4.03
2019-02-25T15:58:25.079Z,5.40
2019-02-25T16:00:53.458Z,2.87
2019-02-25T16:03:22.139Z,1.63
2019-02-25T16:05:52.490Z,6.13
2019-02-25T16:08:21.297Z,5.10
2019-02-25T16:10:51.734Z,2.20
2019-02-25T16:13:21.038Z,2.97
2019-02-25T16:15:49.356Z,3.83
2019-02-25T16:18:18.091Z,1.87
2019-02-25T16:20:46.501Z,1.63
2019-02-25T16:23:14.819Z,5.67
2019-02-25T16:25:43.693Z,3.50
2019-02-25T16:28:13.051Z,6.07
2019-02-25T16:30:42.927Z,2.73
2019-02-25T16:33:14.324Z,2.10
2019-02-25T16:35:43.535Z,4.60
2019-02-25T16:38:12.406Z,2.60
2019-02-25T16:40:40.815Z,3.17
2019-02-25T16:43:10.464Z,1.93
2019-02-25T16:45:41.652Z,8.27
2019-02-25T16:48:11.554Z,4.00
2019-02-25T16:50:43.381Z,10.43
2019-02-25T16:53:10.897Z,7.60
2019-02-25T16:55:42.787Z,8.13
2019-02-25T16:58:13.213Z,11.77
2019-02-25T17:00:41.848Z,8.47
2019-02-25T17:03:11.200Z,12.60
2019-02-25T17:05:42.883Z,13.20
2019-02-25T17:08:12.851Z,5.53
2019-02-25T17:10:41.393Z,4.20
2019-02-25T17:13:10.362Z,4.50
2019-02-25T17:15:39.989Z,4.17
2019-02-25T17:18:08.875Z,14.97
2019-02-25T17:20:37.267Z,9.20
2019-02-25T17:23:09.466Z,13.57
2019-02-25T17:25:36.856Z,21.90
2019-02-25T17:28:08.144Z,18.10
2019-02-25T17:30:37.981Z,13.10
2019-02-25T17:33:10.013Z,12.07
2019-02-25T17:35:38.519Z,12.93
2019-02-25T17:38:06.975Z,12.90
2019-02-25T17:40:35.362Z,16.80
2019-02-25T17:43:03.787Z,24.80
2019-02-25T17:45:34.378Z,20.87
2019-02-25T17:48:05.436Z,17.67
2019-02-25T17:50:34.762Z,15.77
2019-02-25T17:53:03.287Z,25.57
2019-02-25T17:55:34.469Z,20.60
2019-02-25T17:58:03.052Z,19.00
2019-02-25T18:00:41.728Z,16.00
2019-02-25T18:03:09.508Z,18.90
2019-02-25T18:05:40.791Z,19.20
2019-02-25T18:08:12.375Z,17.43
2019-02-25T18:10:40.772Z,18.20
2019-02-25T18:13:11.026Z,17.40
2019-02-25T18:15:39.753Z,29.10
2019-02-25T18:18:11.683Z,25.53
2019-02-25T18:20:38.982Z,27.10
2019-02-25T18:23:07.620Z,30.17
2019-02-25T18:25:37.665Z,30.97
2019-02-25T18:28:08.388Z,35.03
2019-02-25T18:30:36.623Z,21.97
2019-02-25T18:33:05.468Z,27.13
2019-02-25T18:35:36.210Z,23.63
2019-02-25T18:38:05.384Z,24.87
2019-02-25T18:40:35.847Z,22.47
2019-02-25T18:43:06.781Z,25.07
2019-02-25T18:45:37.862Z,23.40
2019-02-25T18:48:07.124Z,22.73
2019-02-25T18:50:39.276Z,23.80
2019-02-25T18:53:07.333Z,22.63
2019-02-25T18:55:36.749Z,28.57
2019-02-25T18:58:07.947Z,26.20
2019-02-25T19:00:40.025Z,28.30
2019-02-25T19:03:09.348Z,23.23
2019-02-25T19:05:37.948Z,17.37
2019-02-25T19:08:16.838Z,18.47
2019-02-25T19:10:45.536Z,22.67
2019-02-25T19:13:15.929Z,12.77
2019-02-25T19:15:43.830Z,18.27
2019-02-25T19:18:13.226Z,25.03
2019-02-25T19:20:43.376Z,10.47
2019-02-25T19:23:13.886Z,17.30
2019-02-25T19:25:42.831Z,19.17
2019-02-25T19:28:13.940Z,12.53
2019-02-25T19:30:42.728Z,17.47
2019-02-25T19:33:11.693Z,12.10
2019-02-25T19:35:40.854Z,12.00
2019-02-25T19:38:12.763Z,15.67
2019-02-25T19:40:40.843Z,14.97
2019-02-25T19:43:11.035Z,19.23
2019-02-25T19:45:40.803Z,13.27
2019-02-25T19:48:09.970Z,13.40
2019-02-25T19:51:20.573Z,16.73
2019-02-25T19:53:53.602Z,14.83
2019-02-25T19:59:34.665Z,15.50
2019-02-25T20:05:24.132Z,17.57
2019-02-25T20:08:13.253Z,13.50
2019-02-25T20:10:46.600Z,18.03
2019-02-25T20:13:21.870Z,16.93
2019-02-25T20:15:51.205Z,23.93
2019-02-25T20:18:20.659Z,16.30
2019-02-25T20:20:49.324Z,14.40
2019-02-25T20:23:20.242Z,16.47
2019-02-25T20:25:51.018Z,22.80
2019-02-25T20:28:20.735Z,23.50
2019-02-25T20:30:51.497Z,18.80
2019-02-25T20:33:19.928Z,16.47
2019-02-25T20:35:51.181Z,16.80
2019-02-25T20:38:18.568Z,20.97
2019-02-25T20:40:50.806Z,18.73
2019-02-25T20:43:19.394Z,22.00
2019-02-25T20:45:48.167Z,36.53
2019-02-25T20:48:17.694Z,26.17
2019-02-25T20:50:46.023Z,23.63
2019-02-25T20:53:14.462Z,24.90
2019-02-25T20:55:42.937Z,28.53
2019-02-25T20:58:13.489Z,23.53
2019-02-25T21:00:42.428Z,19.33
2019-02-25T21:03:13.979Z,25.80
2019-02-25T21:05:41.877Z,21.37
2019-02-25T21:08:12.297Z,18.00
2019-02-25T21:10:40.502Z,17.30
2019-02-25T21:13:08.817Z,20.13
2019-02-25T21:15:38.407Z,15.30
2019-02-25T21:18:07.827Z,17.80
2019-02-25T21:20:36.243Z,12.60
2019-02-25T21:23:05.979Z,14.03
2019-02-25T21:25:36.780Z,11.93
2019-02-25T21:28:06.791Z,15.27
2019-02-25T21:30:39.156Z,15.57
2019-02-25T21:33:06.044Z,11.50
2019-02-25T21:35:37.206Z,14.70
2019-02-25T21:38:04.967Z,11.63
2019-02-25T21:40:33.304Z,11.43
2019-02-25T21:43:01.649Z,11.70
2019-02-25T21:45:32.353Z,9.50
2019-02-25T21:48:01.876Z,10.60
2019-02-25T21:50:32.993Z,11.70
2019-02-25T21:53:00.525Z,11.97
2019-02-25T21:55:30.988Z,9.37
2019-02-25T21:58:00.718Z,10.00
2019-02-25T22:00:31.981Z,10.50
2019-02-25T22:02:59.175Z,12.90
2019-02-25T22:05:27.464Z,9.57
2019-02-25T22:07:57.786Z,10.63
2019-02-25T22:10:25.855Z,12.23
2019-02-25T22:12:54.301Z,10.90
2019-02-25T22:15:22.759Z,10.23
2019-02-25T22:17:53.297Z,10.57
2019-02-25T22:20:22.592Z,15.53
2019-02-25T22:22:54.553Z,14.00
2019-02-25T22:25:22.724Z,17.73
2019-02-25T22:27:51.017Z,13.40
2019-02-25T22:30:19.526Z,12.20
2019-02-25T22:32:47.910Z,11.10
2019-02-25T22:35:16.203Z,11.60
2019-02-25T22:37:49.000Z,16.67
2019-02-25T22:40:17.184Z,12.60
2019-02-25T22:42:47.970Z,10.20
2019-02-25T22:45:18.956Z,8.90
2019-02-25T22:47:50.536Z,11.50
2019-02-25T22:50:24.086Z,13.00
2019-02-25T22:52:58.205Z,12.80
2019-02-25T22:55:22.730Z,9.80
2019-02-25T22:57:53.936Z,9.50
2019-02-25T23:00:43.309Z,12.27
2019-02-25T23:03:15.213Z,14.63
2019-02-25T23:05:43.623Z,9.20
2019-02-25T23:08:13.173Z,13.80
2019-02-25T23:10:44.465Z,12.43
2019-02-25T23:13:12.842Z,10.60
2019-02-25T23:15:43.813Z,12.67
2019-02-25T23:18:13.885Z,12.80
2019-02-25T23:20:41.515Z,14.73
2019-02-25T23:23:10.078Z,10.50
2019-02-25T23:25:38.459Z,18.17
2019-02-25T23:28:06.768Z,10.33
2019-02-25T23:30:39.101Z,11.83
2019-02-25T23:33:05.185Z,14.23
2019-02-25T23:35:33.556Z,15.40
2019-02-25T23:38:01.886Z,12.50
2019-02-25T23:40:33.293Z,13.20
2019-02-25T23:43:01.461Z,13.97
2019-02-25T23:45:30.543Z,14.27
2019-02-25T23:47:59.718Z,13.70
2019-02-25T23:50:29.762Z,11.30
2019-02-25T23:52:59.223Z,16.97
2019-02-25T23:55:29.500Z,14.33
2019-02-25T23:57:57.581Z,10.60
